createdAt,value
2022-08-09T00:02:07.166Z,17.50
2022-08-09T00:05:03.725Z,17.40
2022-08-09T00:07:59.966Z,17.30
2022-08-09T00:10:47.748Z,17.20
2022-08-09T00:13:33.569Z,17.20
2022-08-09T00:16:26.305Z,17.10
2022-08-09T00:19:23.256Z,17.10
2022-08-09T00:22:09.531Z,17.00
2022-08-09T00:24:57.697Z,16.90
2022-08-09T00:27:43.742Z,16.90
2022-08-09T00:30:35.337Z,16.90
2022-08-09T00:33:49.131Z,16.80
2022-08-09T00:36:30.719Z,16.80
2022-08-09T00:40:12.323Z,16.70
2022-08-09T00:44:24.696Z,16.60
2022-08-09T00:45:35.358Z,16.60
2022-08-09T00:48:21.470Z,16.60
2022-08-09T00:51:11.864Z,16.60
2022-08-09T00:53:58.666Z,16.50
2022-08-09T00:56:44.872Z,16.50
2022-08-09T00:59:40.961Z,16.50
2022-08-09T01:02:31.137Z,16.40
2022-08-09T01:05:51.018Z,16.40
2022-08-09T01:08:48.910Z,16.40
2022-08-09T01:11:53.236Z,16.30
2022-08-09T01:14:52.539Z,16.30
2022-08-09T01:17:44.608Z,16.30
2022-08-09T01:21:06.260Z,16.30
2022-08-09T01:24:04.972Z,16.20
2022-08-09T01:27:12.614Z,16.20
2022-08-09T01:30:02.395Z,16.20
2022-08-09T01:32:51.774Z,16.20
2022-08-09T01:35:46.880Z,16.20
2022-08-09T01:38:44.303Z,16.20
2022-08-09T01:41:35.714Z,16.20
2022-08-09T01:44:23.842Z,16.20
2022-08-09T01:47:12.124Z,16.20
2022-08-09T01:49:59.044Z,16.10
2022-08-09T01:52:46.180Z,16.10
2022-08-09T01:55:37.635Z,16.10
2022-08-09T01:58:28.067Z,16.00
2022-08-09T02:01:18.175Z,16.00
2022-08-09T02:04:06.525Z,15.90
2022-08-09T02:07:18.323Z,15.90
2022-08-09T02:10:29.906Z,15.80
2022-08-09T02:13:19.155Z,15.70
2022-08-09T02:16:11.340Z,15.70
2022-08-09T02:18:59.725Z,15.70
2022-08-09T02:21:55.672Z,15.70
2022-08-09T02:24:46.395Z,15.60
2022-08-09T02:27:58.211Z,15.60
2022-08-09T02:31:05.991Z,15.60
2022-08-09T02:34:07.529Z,15.60
2022-08-09T02:37:01.444Z,15.50
2022-08-09T02:40:01.685Z,15.50
2022-08-09T02:42:51.865Z,15.50
2022-08-09T02:45:44.043Z,15.50
2022-08-09T02:48:33.498Z,15.40
2022-08-09T02:51:22.611Z,15.30
2022-08-09T02:54:15.432Z,15.40
2022-08-09T02:57:14.190Z,15.30
2022-08-09T03:00:21.179Z,15.30
2022-08-09T03:03:12.917Z,15.30
2022-08-09T03:06:14.540Z,15.30
2022-08-09T03:09:02.143Z,15.30
2022-08-09T03:12:09.748Z,15.30
2022-08-09T03:14:57.603Z,15.30
2022-08-09T03:17:45.044Z,15.20
2022-08-09T03:20:42.946Z,15.20
2022-08-09T03:23:30.762Z,15.10
2022-08-09T03:26:18.602Z,15.10
2022-08-09T03:29:09.806Z,15.10
2022-08-09T03:32:00.940Z,15.10
2022-08-09T03:34:48.214Z,15.10
2022-08-09T03:37:56.442Z,15.10
2022-08-09T03:40:44.788Z,15.00
2022-08-09T03:43:33.164Z,15.00
2022-08-09T03:46:20.744Z,15.00
2022-08-09T03:49:17.329Z,15.00
2022-08-09T03:52:07.392Z,15.00
2022-08-09T03:54:54.901Z,15.00
2022-08-09T03:57:53.638Z,15.00
2022-08-09T04:00:50.081Z,15.00
2022-08-09T04:04:00.501Z,14.90
2022-08-09T04:06:49.043Z,14.90
2022-08-09T04:09:47.957Z,15.00
2022-08-09T04:12:49.939Z,14.90
2022-08-09T04:16:18.697Z,15.00
2022-08-09T04:18:45.940Z,14.90
2022-08-09T04:21:38.425Z,15.00
2022-08-09T04:24:26.952Z,15.00
2022-08-09T04:27:13.266Z,15.00
2022-08-09T04:30:01.192Z,15.00
2022-08-09T04:32:48.033Z,15.00
2022-08-09T04:35:34.254Z,14.90
2022-08-09T04:38:20.542Z,14.90
2022-08-09T04:41:09.764Z,14.90
2022-08-09T04:44:06.865Z,14.90
2022-08-09T04:46:58.862Z,14.90
2022-08-09T04:49:54.816Z,14.90
2022-08-09T04:52:42.167Z,14.90
2022-08-09T04:55:32.464Z,14.90
2022-08-09T04:58:27.043Z,14.90
2022-08-09T05:01:16.384Z,14.80
2022-08-09T05:04:04.877Z,14.80
2022-08-09T05:06:51.431Z,14.80
2022-08-09T05:09:49.396Z,14.80
2022-08-09T05:12:36.418Z,14.80
2022-08-09T05:15:39.026Z,14.80
2022-08-09T05:18:50.676Z,14.90
2022-08-09T05:21:46.990Z,14.90
2022-08-09T05:24:38.696Z,14.90
2022-08-09T05:27:25.028Z,15.00
2022-08-09T05:30:12.178Z,15.00
2022-08-09T05:33:01.979Z,15.10
2022-08-09T05:35:50.787Z,15.10
2022-08-09T05:38:40.285Z,15.20
2022-08-09T05:41:32.136Z,15.20
2022-08-09T05:44:22.269Z,15.30
2022-08-09T05:47:15.807Z,15.30
2022-08-09T05:50:25.853Z,15.50
2022-08-09T05:53:11.766Z,15.60
2022-08-09T05:56:08.616Z,15.70
2022-08-09T05:58:59.389Z,15.90
2022-08-09T06:01:46.464Z,16.00
2022-08-09T06:04:36.517Z,16.10
2022-08-09T06:07:22.735Z,16.20
2022-08-09T06:10:15.816Z,16.40
2022-08-09T06:13:12.033Z,16.50
2022-08-09T06:16:05.336Z,16.70
2022-08-09T06:18:51.528Z,16.80
2022-08-09T06:21:39.750Z,17.00
2022-08-09T06:24:37.694Z,17.10
2022-08-09T06:27:26.565Z,17.30
2022-08-09T06:30:29.708Z,17.40
2022-08-09T06:33:39.667Z,17.50
2022-08-09T06:36:27.205Z,17.60
2022-08-09T06:39:14.746Z,17.70
2022-08-09T06:42:09.183Z,17.80
2022-08-09T06:44:58.921Z,17.80
2022-08-09T06:47:45.305Z,17.90
2022-08-09T06:50:31.994Z,18.00
2022-08-09T06:53:18.171Z,18.10
2022-08-09T06:56:07.914Z,18.10
2022-08-09T07:00:56.551Z,18.10
2022-08-09T07:02:05.127Z,18.20
2022-08-09T07:04:51.153Z,18.30
2022-08-09T07:08:00.742Z,18.30
2022-08-09T07:10:43.203Z,18.40
2022-08-09T07:13:45.534Z,18.50
2022-08-09T07:16:44.758Z,18.60
2022-08-09T07:19:35.609Z,18.70
2022-08-09T07:22:34.818Z,18.80
2022-08-09T07:25:22.500Z,18.90
2022-08-09T07:28:12.138Z,19.00
2022-08-09T07:31:06.111Z,19.00
2022-08-09T07:33:55.833Z,19.10
2022-08-09T07:36:42.622Z,19.10
2022-08-09T07:39:41.187Z,19.20
2022-08-09T07:42:32.744Z,19.30
2022-08-09T07:45:38.372Z,19.40
2022-08-09T07:48:30.353Z,19.50
2022-08-09T07:52:05.285Z,19.60
2022-08-09T07:54:27.914Z,19.70
2022-08-09T07:57:16.333Z,19.70
2022-08-09T08:00:03.995Z,19.80
2022-08-09T08:03:00.350Z,19.90
2022-08-09T08:05:53.814Z,20.00
2022-08-09T08:09:02.325Z,20.20
2022-08-09T08:12:23.910Z,20.20
2022-08-09T08:14:57.256Z,20.40
2022-08-09T08:17:54.170Z,20.50
2022-08-09T08:20:42.908Z,20.60
2022-08-09T08:23:29.084Z,20.60
2022-08-09T08:26:26.441Z,20.60
2022-08-09T08:29:27.645Z,20.50
2022-08-09T08:32:14.510Z,20.50
2022-08-09T08:35:10.980Z,20.40
2022-08-09T08:38:11.461Z,20.30
2022-08-09T08:40:58.915Z,20.30
2022-08-09T08:43:44.992Z,20.30
2022-08-09T08:46:41.401Z,20.30
2022-08-09T08:49:48.587Z,20.30
2022-08-09T08:52:58.547Z,20.30
2022-08-09T08:55:43.824Z,20.20
2022-08-09T08:58:32.202Z,20.10
2022-08-09T09:01:24.726Z,20.00
2022-08-09T09:04:16.123Z,20.00
2022-08-09T09:07:15.620Z,20.00
2022-08-09T09:10:12.665Z,20.00
2022-08-09T09:13:01.020Z,20.00
2022-08-09T09:15:56.240Z,20.10
2022-08-09T09:18:48.809Z,20.10
2022-08-09T09:22:07.327Z,20.20
2022-08-09T09:26:00.420Z,20.20
2022-08-09T09:28:10.788Z,20.30
2022-08-09T09:30:58.129Z,20.40
2022-08-09T09:33:46.716Z,20.50
2022-08-09T09:36:52.912Z,20.50
2022-08-09T09:39:55.631Z,20.60
2022-08-09T09:42:56.375Z,20.70
2022-08-09T09:46:39.469Z,20.80
2022-08-09T09:49:10.343Z,20.90
2022-08-09T09:52:16.538Z,21.00
2022-08-09T09:55:28.338Z,21.10
2022-08-09T09:58:20.112Z,21.20
2022-08-09T10:01:31.152Z,21.40
2022-08-09T10:04:30.369Z,21.50
2022-08-09T10:07:26.460Z,21.60
2022-08-09T10:10:14.107Z,21.70
2022-08-09T10:13:07.406Z,21.80
2022-08-09T10:16:55.465Z,21.80
2022-08-09T10:19:10.174Z,21.90
2022-08-09T10:21:56.539Z,22.00
2022-08-09T10:24:42.955Z,22.10
2022-08-09T10:27:38.529Z,22.20
2022-08-09T10:32:04.265Z,22.30
2022-08-09T10:34:08.509Z,22.50
2022-08-09T10:36:43.513Z,22.50
2022-08-09T10:39:40.588Z,22.60
2022-08-09T10:42:35.724Z,22.70
2022-08-09T10:45:22.780Z,22.80
2022-08-09T10:48:52.329Z,22.90
2022-08-09T10:52:05.325Z,22.90
2022-08-09T10:54:54.916Z,23.00
2022-08-09T10:57:41.836Z,23.20
2022-08-09T11:00:35.537Z,23.20
2022-08-09T11:03:46.770Z,23.40
2022-08-09T11:06:33.288Z,23.50
2022-08-09T11:09:41.432Z,23.60
2022-08-09T11:12:36.770Z,23.70
2022-08-09T11:15:33.818Z,23.80
2022-08-09T11:18:45.118Z,23.80
2022-08-09T11:21:57.192Z,23.80
2022-08-09T11:25:17.191Z,23.80
2022-08-09T11:28:55.642Z,23.90
2022-08-09T11:31:49.213Z,24.00
2022-08-09T11:34:44.078Z,24.20
2022-08-09T11:37:40.935Z,24.30
2022-08-09T11:40:31.316Z,24.40
2022-08-09T11:43:48.990Z,24.50
2022-08-09T11:47:14.599Z,24.60
2022-08-09T11:50:53.641Z,24.70
2022-08-09T11:53:59.154Z,24.80
2022-08-09T11:56:20.840Z,24.90
2022-08-09T11:59:30.564Z,24.90
2022-08-09T12:02:36.903Z,25.00
2022-08-09T12:05:37.638Z,25.10
2022-08-09T12:08:26.112Z,25.20
2022-08-09T12:11:15.663Z,25.20
2022-08-09T12:14:28.540Z,25.30
2022-08-09T12:17:27.922Z,25.40
2022-08-09T12:20:24.635Z,25.50
2022-08-09T12:23:11.103Z,25.60
2022-08-09T12:26:00.572Z,25.80
2022-08-09T12:28:59.432Z,25.90
2022-08-09T12:32:08.164Z,25.90
2022-08-09T12:35:04.572Z,26.00
2022-08-09T12:37:52.327Z,26.10
2022-08-09T12:40:52.054Z,26.20
2022-08-09T12:44:06.590Z,26.30
2022-08-09T12:46:50.101Z,26.30
2022-08-09T12:49:38.177Z,26.40
2022-08-09T12:52:40.280Z,26.50
2022-08-09T12:56:11.562Z,26.60
2022-08-09T12:58:42.856Z,26.60
2022-08-09T13:01:30.266Z,26.70
2022-08-09T13:04:36.913Z,26.80
2022-08-09T13:07:28.699Z,26.80
2022-08-09T13:10:34.890Z,26.90
2022-08-09T13:13:38.094Z,26.90
2022-08-09T13:16:46.029Z,27.00
2022-08-09T13:20:08.356Z,27.20
2022-08-09T13:23:05.539Z,27.20
2022-08-09T13:25:56.263Z,27.30
2022-08-09T13:29:01.376Z,27.40
2022-08-09T13:32:16.108Z,27.40
2022-08-09T13:35:03.806Z,27.50
2022-08-09T13:37:52.947Z,27.60
2022-08-09T13:41:50.897Z,27.70
2022-08-09T13:43:45.463Z,27.70
2022-08-09T13:47:17.959Z,27.80
2022-08-09T13:49:57.606Z,27.90
2022-08-09T13:52:47.876Z,28.00
2022-08-09T13:55:34.539Z,28.10
2022-08-09T13:58:23.365Z,28.10
2022-08-09T14:01:13.482Z,28.20
2022-08-09T14:04:17.104Z,28.30
2022-08-09T14:07:09.996Z,28.50
2022-08-09T14:09:56.935Z,28.60
2022-08-09T14:12:44.324Z,28.80
2022-08-09T14:16:09.243Z,28.90
2022-08-09T14:18:36.566Z,29.00
2022-08-09T14:21:24.170Z,29.20
2022-08-09T14:24:22.377Z,29.30
2022-08-09T14:27:20.358Z,29.40
2022-08-09T14:30:37.060Z,29.50
2022-08-09T14:33:13.909Z,29.50
2022-08-09T14:36:19.982Z,29.60
2022-08-09T14:39:08.960Z,29.80
2022-08-09T14:41:55.173Z,29.90
2022-08-09T14:44:48.827Z,30.10
2022-08-09T14:47:56.864Z,30.20
2022-08-09T14:50:45.594Z,30.40
2022-08-09T14:53:32.023Z,30.50
2022-08-09T14:56:26.822Z,30.70
2022-08-09T14:59:16.582Z,30.80
2022-08-09T15:02:02.706Z,31.00
2022-08-09T15:04:51.678Z,31.20
2022-08-09T15:07:37.975Z,31.30
2022-08-09T15:10:31.754Z,31.50
2022-08-09T15:13:18.262Z,31.90
2022-08-09T15:16:04.998Z,32.30
2022-08-09T15:18:54.477Z,32.90
2022-08-09T15:21:57.883Z,33.50
2022-08-09T15:24:48.595Z,34.20
2022-08-09T15:27:47.895Z,34.90
2022-08-09T15:30:56.676Z,35.50
2022-08-09T15:34:17.785Z,36.20
2022-08-09T15:36:53.252Z,37.00
2022-08-09T15:39:53.721Z,37.70
2022-08-09T15:42:43.880Z,38.30
2022-08-09T15:45:30.246Z,38.90
2022-08-09T15:48:28.299Z,39.40
2022-08-09T15:51:44.508Z,39.80
2022-08-09T15:54:28.700Z,40.20
2022-08-09T15:57:34.258Z,40.70
2022-08-09T16:00:26.171Z,41.10
2022-08-09T16:03:26.760Z,41.40
2022-08-09T16:06:27.454Z,41.70
2022-08-09T16:09:32.465Z,41.90
2022-08-09T16:12:31.273Z,42.10
2022-08-09T16:16:11.469Z,42.20
2022-08-09T16:18:23.544Z,42.30
2022-08-09T16:21:09.496Z,42.30
2022-08-09T16:23:58.657Z,42.40
2022-08-09T16:26:48.896Z,42.60
2022-08-09T16:29:37.605Z,42.60
2022-08-09T16:32:55.104Z,42.50
2022-08-09T16:35:55.906Z,42.40
2022-08-09T16:38:45.977Z,42.30
2022-08-09T16:41:39.429Z,42.30
2022-08-09T16:44:44.269Z,42.20
2022-08-09T16:48:42.194Z,42.10
2022-08-09T16:50:38.260Z,42.10
2022-08-09T16:53:25.037Z,42.10
2022-08-09T16:56:18.779Z,42.30
2022-08-09T16:59:11.606Z,42.40
2022-08-09T17:01:58.055Z,42.60
2022-08-09T17:04:46.533Z,42.60
2022-08-09T17:08:43.946Z,42.60
2022-08-09T17:10:43.321Z,42.70
2022-08-09T17:13:34.283Z,42.70
2022-08-09T17:16:20.790Z,42.70
2022-08-09T17:19:06.961Z,42.70
2022-08-09T17:21:57.035Z,42.70
2022-08-09T17:24:47.856Z,42.70
2022-08-09T17:27:49.330Z,42.70
2022-08-09T17:30:40.208Z,42.60
2022-08-09T17:33:37.832Z,42.40
2022-08-09T17:36:24.329Z,42.30
2022-08-09T17:39:14.499Z,42.20
2022-08-09T17:42:01.453Z,42.10
2022-08-09T17:44:49.358Z,41.80
2022-08-09T17:47:49.185Z,41.70
2022-08-09T17:50:37.773Z,41.30
2022-08-09T17:53:24.946Z,40.80
2022-08-09T17:56:11.196Z,39.90
2022-08-09T17:59:03.034Z,38.90
2022-08-09T18:02:07.581Z,37.40
2022-08-09T18:04:57.185Z,35.70
2022-08-09T18:07:48.562Z,33.70
2022-08-09T18:10:35.147Z,32.10
2022-08-09T18:13:43.388Z,30.70
2022-08-09T18:16:30.677Z,29.60
2022-08-09T18:20:54.655Z,28.60
2022-08-09T18:22:25.557Z,27.80
2022-08-09T18:25:12.455Z,27.20
2022-08-09T18:28:04.569Z,26.60
2022-08-09T18:30:53.615Z,26.10
2022-08-09T18:33:40.322Z,25.60
2022-08-09T18:36:32.549Z,25.10
2022-08-09T18:39:24.219Z,24.70
2022-08-09T18:42:10.531Z,24.40
2022-08-09T18:45:01.371Z,24.10
2022-08-09T18:47:54.921Z,23.80
2022-08-09T18:50:45.399Z,23.60
2022-08-09T18:53:55.997Z,23.40
2022-08-09T18:56:40.353Z,23.20
2022-08-09T18:59:27.516Z,23.00
2022-08-09T19:02:24.020Z,22.80
2022-08-09T19:05:48.754Z,22.70
2022-08-09T19:08:28.103Z,22.60
2022-08-09T19:11:14.742Z,22.50
2022-08-09T19:14:03.216Z,22.40
2022-08-09T19:16:52.716Z,22.30
2022-08-09T19:19:41.665Z,22.20
2022-08-09T19:22:28.093Z,22.00
2022-08-09T19:25:42.022Z,21.90
2022-08-09T19:28:20.433Z,21.80
2022-08-09T19:31:07.625Z,21.70
2022-08-09T19:33:54.869Z,21.60
2022-08-09T19:36:43.823Z,21.50
2022-08-09T19:40:03.081Z,21.40
2022-08-09T19:42:38.960Z,21.30
2022-08-09T19:45:25.972Z,21.30
2022-08-09T19:49:00.944Z,21.20
2022-08-09T19:51:32.876Z,21.10
2022-08-09T19:54:27.759Z,20.90
2022-08-09T19:57:13.862Z,20.80
2022-08-09T20:00:07.558Z,20.70
2022-08-09T20:04:10.032Z,20.70
2022-08-09T20:06:04.833Z,20.60
2022-08-09T20:09:20.617Z,20.50
2022-08-09T20:12:22.305Z,20.40
2022-08-09T20:16:36.869Z,20.40
2022-08-09T20:18:27.661Z,20.30
2022-08-09T20:21:14.775Z,20.30
2022-08-09T20:24:03.916Z,20.10
2022-08-09T20:26:50.357Z,20.10
2022-08-09T20:29:38.833Z,20.10
2022-08-09T20:32:33.850Z,20.00
2022-08-09T20:35:21.738Z,20.00
2022-08-09T20:38:22.233Z,19.90
2022-08-09T20:41:14.647Z,19.90
2022-08-09T20:44:01.221Z,19.80
2022-08-09T20:46:47.205Z,19.80
2022-08-09T20:49:37.371Z,19.80
2022-08-09T20:52:23.904Z,19.80
2022-08-09T20:55:12.391Z,19.70
2022-08-09T20:58:07.843Z,19.70
2022-08-09T21:01:13.643Z,19.60
2022-08-09T21:04:08.279Z,19.60
2022-08-09T21:07:12.125Z,19.60
2022-08-09T21:10:00.871Z,19.50
2022-08-09T21:15:54.378Z,19.50
2022-08-09T21:20:02.447Z,19.40
2022-08-09T21:21:56.310Z,19.40
2022-08-09T21:25:02.270Z,19.30
2022-08-09T21:27:52.860Z,19.30
2022-08-09T21:30:41.434Z,19.20
2022-08-09T21:33:27.709Z,19.20
2022-08-09T21:36:28.194Z,19.20
2022-08-09T21:39:21.779Z,19.10
2022-08-09T21:42:13.952Z,19.10
2022-08-09T21:45:00.951Z,19.00
2022-08-09T21:47:50.971Z,19.00
2022-08-09T21:50:38.869Z,19.00
2022-08-09T21:53:40.779Z,18.90
2022-08-09T21:56:34.047Z,18.80
2022-08-09T21:59:42.734Z,18.90
2022-08-09T22:02:36.405Z,18.80
2022-08-09T22:05:23.882Z,18.80
2022-08-09T22:08:27.239Z,18.80
2022-08-09T22:12:05.943Z,18.70
2022-08-09T22:14:19.455Z,18.70
2022-08-09T22:17:05.794Z,18.70
2022-08-09T22:19:58.771Z,18.60
2022-08-09T22:22:49.243Z,18.60
2022-08-09T22:26:06.784Z,18.60
2022-08-09T22:28:47.183Z,18.50
2022-08-09T22:31:44.335Z,18.50
2022-08-09T22:34:44.160Z,18.50
2022-08-09T22:37:45.273Z,18.40
2022-08-09T22:40:32.385Z,18.40
2022-08-09T22:44:00.566Z,18.40
2022-08-09T22:48:16.722Z,18.30
2022-08-09T22:49:36.735Z,18.30
2022-08-09T22:52:26.789Z,18.20
2022-08-09T22:55:21.902Z,18.20
2022-08-09T22:58:08.915Z,18.20
2022-08-09T23:00:54.807Z,18.10
2022-08-09T23:04:05.972Z,18.10
2022-08-09T23:07:11.349Z,18.10
2022-08-09T23:10:00.192Z,18.00
2022-08-09T23:12:47.145Z,18.00
2022-08-09T23:15:33.511Z,17.90
2022-08-09T23:18:19.635Z,17.90
2022-08-09T23:21:07.284Z,17.90
2022-08-09T23:24:05.153Z,17.80
2022-08-09T23:26:52.923Z,17.80
2022-08-09T23:29:38.933Z,17.70
2022-08-09T23:32:24.753Z,17.70
2022-08-09T23:35:10.676Z,17.70
2022-08-09T23:37:56.453Z,17.70
2022-08-09T23:40:42.693Z,17.60
2022-08-09T23:43:28.647Z,17.60
2022-08-09T23:46:14.611Z,17.60
2022-08-09T23:49:00.866Z,17.50
2022-08-09T23:51:47.226Z,17.50
2022-08-09T23:54:33.149Z,17.50
2022-08-09T23:57:21.078Z,17.50
